CTN344 LQSA-LYBE
Flight info
| Callsign | CTN344 |
|---|---|
| Flight time | N/A |
| Altitude | 29000 |
| Route | SOMUN1B/29 SOMUN L5 ENUPU |
| Aircraft | A319/M-SDE3FGHIRWY/LB1 |
Departure
| Time | N/A |
|---|---|
| Airport | Sarajevo International Airport (LQSA) |
Arrival
| Time | 2026-05-01 13:11 |
|---|---|
| Airport | Belgrade Nikola Tesla Airport (LYBE) |
| Time | Latitude | Longitude | Altitude | Speed | Heading |
|---|---|---|---|---|---|
| 2026-05-01 12:55 | 44.51812 | 20.73936 | 11629 ft | 373 kts | 118° |
| 2026-05-01 12:56 | 44.50941 | 20.76012 | 10764 ft | 372 kts | 118° |
| 2026-05-01 12:56 | 44.49664 | 20.79121 | 9929 ft | 358 kts | 118° |
| 2026-05-01 12:56 | 44.48479 | 20.82026 | 9697 ft | 329 kts | 118° |
| 2026-05-01 12:56 | 44.47389 | 20.84685 | 9551 ft | 302 kts | 118° |
| 2026-05-01 12:57 | 44.46353 | 20.87204 | 8899 ft | 295 kts | 117° |
| 2026-05-01 12:57 | 44.45808 | 20.92549 | 7597 ft | 277 kts | 71° |
| 2026-05-01 12:57 | 44.46669 | 20.94898 | 6951 ft | 269 kts | 49° |
| 2026-05-01 12:58 | 44.48066 | 20.96576 | 6315 ft | 264 kts | 28° |
| 2026-05-01 12:58 | 44.49774 | 20.97393 | 5661 ft | 259 kts | 7° |
| 2026-05-01 12:58 | 44.51535 | 20.97253 | 5299 ft | 245 kts | 346° |
| 2026-05-01 12:59 | 44.54267 | 20.94806 | 5050 ft | 239 kts | 309° |
| 2026-05-01 12:59 | 44.55093 | 20.92782 | 4998 ft | 241 kts | 297° |
| 2026-05-01 12:59 | 44.56569 | 20.88561 | 4989 ft | 240 kts | 298° |
| 2026-05-01 13:00 | 44.58060 | 20.84346 | 4984 ft | 241 kts | 298° |
| 2026-05-01 13:00 | 44.58852 | 20.82276 | 4953 ft | 241 kts | 304° |
| 2026-05-01 13:01 | 44.60638 | 20.78314 | 4691 ft | 239 kts | 304° |
| 2026-05-01 13:01 | 44.61522 | 20.76342 | 4554 ft | 238 kts | 303° |
| 2026-05-01 13:01 | 44.63280 | 20.72405 | 4291 ft | 238 kts | 304° |
| 2026-05-01 13:02 | 44.64157 | 20.70445 | 4159 ft | 236 kts | 304° |
| 2026-05-01 13:07 | 44.76825 | 20.41764 | 2035 ft | 122 kts | 307° |
| 2026-05-01 13:08 | 44.77132 | 20.41034 | 1890 ft | 121 kts | 307° |
| 2026-05-01 13:08 | 44.77578 | 20.40031 | 1715 ft | 121 kts | 305° |
| 2026-05-01 13:08 | 44.78028 | 20.39024 | 1547 ft | 122 kts | 305° |
| 2026-05-01 13:09 | 44.78481 | 20.38012 | 1379 ft | 122 kts | 306° |
| 2026-05-01 13:09 | 44.78934 | 20.36998 | 1199 ft | 122 kts | 307° |
| 2026-05-01 13:09 | 44.79412 | 20.36008 | 997 ft | 122 kts | 312° |
| 2026-05-01 13:09 | 44.79933 | 20.35058 | 794 ft | 123 kts | 310° |
| 2026-05-01 13:10 | 44.80430 | 20.34104 | 621 ft | 120 kts | 306° |
| 2026-05-01 13:10 | 44.80857 | 20.33107 | 458 ft | 120 kts | 303° |
| 2026-05-01 13:10 | 44.81302 | 20.32117 | 360 ft | 119 kts | 304° |
| 2026-05-01 13:10 | 44.81692 | 20.31274 | 331 ft | 81 kts | 303° |
| 2026-05-01 13:11 | 44.81906 | 20.30795 | 330 ft | 43 kts | 302° |
| 2026-05-01 13:11 | 44.82056 | 20.30453 | 329 ft | 39 kts | 301° |
| 2026-05-01 13:11 | 44.82194 | 20.30138 | 325 ft | 36 kts | 302° |
| 2026-05-01 13:11 | 44.82320 | 20.29852 | 327 ft | 33 kts | 302° |
| 2026-05-01 13:12 | 44.82279 | 20.29684 | 328 ft | 17 kts | 214° |
| 2026-05-01 13:12 | 44.82177 | 20.29593 | 325 ft | 18 kts | 212° |
| 2026-05-01 13:12 | 44.82067 | 20.29497 | 329 ft | 19 kts | 212° |
| 2026-05-01 13:12 | 44.81962 | 20.29404 | 328 ft | 16 kts | 212° |
| 2026-05-01 13:13 | 44.81876 | 20.29328 | 329 ft | 15 kts | 212° |
| 2026-05-01 13:13 | 44.81812 | 20.29272 | 327 ft | 8 kts | 212° |
| 2026-05-01 13:13 | 44.81788 | 20.29236 | 327 ft | 4 kts | 268° |
| 2026-05-01 13:13 | 44.81805 | 20.29197 | 325 ft | 6 kts | 303° |
| 2026-05-01 13:14 | 44.81818 | 20.29166 | 328 ft | 0 kts | 303° |
| 2026-05-01 13:15 | 44.81818 | 20.29167 | 329 ft | 0 kts | 303° |
| 2026-05-01 13:19 | 44.81817 | 20.29167 | 328 ft | 0 kts | 290° |